sensor_id;sensor_type;location;lat;lon;timestamp;P1;durP1;ratioP1;P2;durP2;ratioP2
34060;SDS011;20336;-33.424;-70.638;2022-07-24T00:00:09;51.80;;;29.37;;
34060;SDS011;20336;-33.424;-70.638;2022-07-24T00:02:36;45.63;;;27.33;;
34060;SDS011;20336;-33.424;-70.638;2022-07-24T00:05:03;51.93;;;29.23;;
34060;SDS011;20336;-33.424;-70.638;2022-07-24T00:07:30;49.63;;;29.07;;
34060;SDS011;20336;-33.424;-70.638;2022-07-24T00:09:57;49.17;;;29.27;;
34060;SDS011;20336;-33.424;-70.638;2022-07-24T00:12:24;53.60;;;30.30;;
34060;SDS011;20336;-33.424;-70.638;2022-07-24T00:14:50;50.50;;;29.13;;
34060;SDS011;20336;-33.424;-70.638;2022-07-24T00:17:17;48.70;;;30.20;;
34060;SDS011;20336;-33.424;-70.638;2022-07-24T00:19:44;57.23;;;31.90;;
34060;SDS011;20336;-33.424;-70.638;2022-07-24T00:22:11;57.80;;;30.43;;
34060;SDS011;20336;-33.424;-70.638;2022-07-24T00:24:38;58.47;;;32.07;;
34060;SDS011;20336;-33.424;-70.638;2022-07-24T00:27:05;54.53;;;32.20;;
34060;SDS011;20336;-33.424;-70.638;2022-07-24T00:29:32;55.00;;;33.27;;
34060;SDS011;20336;-33.424;-70.638;2022-07-24T00:31:59;57.37;;;32.47;;
34060;SDS011;20336;-33.424;-70.638;2022-07-24T00:34:26;55.80;;;32.93;;
34060;SDS011;20336;-33.424;-70.638;2022-07-24T00:36:53;57.57;;;34.47;;
34060;SDS011;20336;-33.424;-70.638;2022-07-24T00:39:20;61.17;;;35.73;;
34060;SDS011;20336;-33.424;-70.638;2022-07-24T00:41:47;60.23;;;35.27;;
34060;SDS011;20336;-33.424;-70.638;2022-07-24T00:44:17;60.27;;;35.07;;
34060;SDS011;20336;-33.424;-70.638;2022-07-24T00:46:45;60.63;;;34.67;;
34060;SDS011;20336;-33.424;-70.638;2022-07-24T00:49:13;56.97;;;33.77;;
34060;SDS011;20336;-33.424;-70.638;2022-07-24T00:51:43;57.23;;;34.70;;
34060;SDS011;20336;-33.424;-70.638;2022-07-24T00:54:14;58.53;;;34.23;;
34060;SDS011;20336;-33.424;-70.638;2022-07-24T00:56:42;60.87;;;34.60;;
34060;SDS011;20336;-33.424;-70.638;2022-07-24T00:59:10;57.63;;;34.17;;
34060;SDS011;20336;-33.424;-70.638;2022-07-24T01:01:38;60.73;;;33.60;;
34060;SDS011;20336;-33.424;-70.638;2022-07-24T01:04:05;55.63;;;32.63;;
34060;SDS011;20336;-33.424;-70.638;2022-07-24T01:06:32;55.33;;;32.60;;
34060;SDS011;20336;-33.424;-70.638;2022-07-24T01:08:59;54.97;;;30.53;;
34060;SDS011;20336;-33.424;-70.638;2022-07-24T01:11:27;63.17;;;35.67;;
34060;SDS011;20336;-33.424;-70.638;2022-07-24T01:13:55;62.43;;;35.20;;
34060;SDS011;20336;-33.424;-70.638;2022-07-24T01:16:22;57.80;;;33.90;;
34060;SDS011;20336;-33.424;-70.638;2022-07-24T01:18:49;58.67;;;32.90;;
34060;SDS011;20336;-33.424;-70.638;2022-07-24T01:21:16;53.33;;;32.40;;
34060;SDS011;20336;-33.424;-70.638;2022-07-24T01:23:43;52.33;;;29.77;;
34060;SDS011;20336;-33.424;-70.638;2022-07-24T01:26:09;54.13;;;31.43;;
34060;SDS011;20336;-33.424;-70.638;2022-07-24T01:28:37;54.43;;;31.97;;
34060;SDS011;20336;-33.424;-70.638;2022-07-24T01:31:04;51.73;;;31.63;;
34060;SDS011;20336;-33.424;-70.638;2022-07-24T01:33:31;55.67;;;31.07;;
34060;SDS011;20336;-33.424;-70.638;2022-07-24T01:35:57;50.03;;;28.90;;
34060;SDS011;20336;-33.424;-70.638;2022-07-24T01:38:24;48.80;;;30.83;;
34060;SDS011;20336;-33.424;-70.638;2022-07-24T01:40:51;51.77;;;30.60;;
34060;SDS011;20336;-33.424;-70.638;2022-07-24T01:43:19;49.23;;;28.47;;
34060;SDS011;20336;-33.424;-70.638;2022-07-24T01:45:46;48.70;;;28.30;;
34060;SDS011;20336;-33.424;-70.638;2022-07-24T01:48:13;45.50;;;26.83;;
34060;SDS011;20336;-33.424;-70.638;2022-07-24T01:50:40;43.10;;;25.43;;
34060;SDS011;20336;-33.424;-70.638;2022-07-24T01:53:06;43.17;;;25.97;;
34060;SDS011;20336;-33.424;-70.638;2022-07-24T01:55:33;35.20;;;21.87;;
34060;SDS011;20336;-33.424;-70.638;2022-07-24T01:58:00;32.03;;;19.23;;
34060;SDS011;20336;-33.424;-70.638;2022-07-24T02:00:27;34.07;;;19.40;;
34060;SDS011;20336;-33.424;-70.638;2022-07-24T02:02:53;33.13;;;19.03;;
34060;SDS011;20336;-33.424;-70.638;2022-07-24T02:05:20;31.27;;;19.37;;
34060;SDS011;20336;-33.424;-70.638;2022-07-24T02:07:53;31.00;;;19.40;;
34060;SDS011;20336;-33.424;-70.638;2022-07-24T02:10:25;31.80;;;19.90;;
34060;SDS011;20336;-33.424;-70.638;2022-07-24T02:12:55;33.07;;;19.77;;
34060;SDS011;20336;-33.424;-70.638;2022-07-24T02:15:22;33.73;;;19.40;;
34060;SDS011;20336;-33.424;-70.638;2022-07-24T02:17:50;30.57;;;18.70;;
34060;SDS011;20336;-33.424;-70.638;2022-07-24T02:20:18;28.27;;;17.80;;
34060;SDS011;20336;-33.424;-70.638;2022-07-24T02:22:45;31.37;;;18.43;;
34060;SDS011;20336;-33.424;-70.638;2022-07-24T02:25:13;30.60;;;18.23;;
34060;SDS011;20336;-33.424;-70.638;2022-07-24T02:27:40;26.37;;;17.27;;
34060;SDS011;20336;-33.424;-70.638;2022-07-24T02:30:12;43.37;;;22.73;;
34060;SDS011;20336;-33.424;-70.638;2022-07-24T02:32:42;33.77;;;20.10;;
34060;SDS011;20336;-33.424;-70.638;2022-07-24T02:35:09;35.17;;;20.53;;
34060;SDS011;20336;-33.424;-70.638;2022-07-24T02:37:37;28.70;;;18.47;;
34060;SDS011;20336;-33.424;-70.638;2022-07-24T02:40:05;31.53;;;19.80;;
34060;SDS011;20336;-33.424;-70.638;2022-07-24T02:42:34;36.77;;;23.73;;
34060;SDS011;20336;-33.424;-70.638;2022-07-24T02:45:02;46.03;;;26.80;;
34060;SDS011;20336;-33.424;-70.638;2022-07-24T02:47:30;42.10;;;25.50;;
34060;SDS011;20336;-33.424;-70.638;2022-07-24T02:49:57;54.30;;;30.73;;
34060;SDS011;20336;-33.424;-70.638;2022-07-24T02:52:24;65.47;;;38.03;;
34060;SDS011;20336;-33.424;-70.638;2022-07-24T02:54:51;64.77;;;36.43;;
34060;SDS011;20336;-33.424;-70.638;2022-07-24T02:57:18;55.93;;;33.63;;
34060;SDS011;20336;-33.424;-70.638;2022-07-24T02:59:45;55.67;;;33.37;;
34060;SDS011;20336;-33.424;-70.638;2022-07-24T03:02:15;57.77;;;34.43;;
34060;SDS011;20336;-33.424;-70.638;2022-07-24T03:04:42;62.30;;;35.13;;
34060;SDS011;20336;-33.424;-70.638;2022-07-24T03:07:09;65.03;;;38.30;;
34060;SDS011;20336;-33.424;-70.638;2022-07-24T03:09:36;67.00;;;37.63;;
34060;SDS011;20336;-33.424;-70.638;2022-07-24T03:12:03;58.93;;;35.00;;
34060;SDS011;20336;-33.424;-70.638;2022-07-24T03:14:30;59.20;;;34.30;;
34060;SDS011;20336;-33.424;-70.638;2022-07-24T03:16:57;51.60;;;30.43;;
34060;SDS011;20336;-33.424;-70.638;2022-07-24T03:19:23;56.10;;;31.67;;
34060;SDS011;20336;-33.424;-70.638;2022-07-24T03:21:50;54.27;;;31.37;;
34060;SDS011;20336;-33.424;-70.638;2022-07-24T03:24:17;49.67;;;29.07;;
34060;SDS011;20336;-33.424;-70.638;2022-07-24T03:26:44;61.17;;;34.27;;
34060;SDS011;20336;-33.424;-70.638;2022-07-24T03:29:11;48.97;;;29.20;;
34060;SDS011;20336;-33.424;-70.638;2022-07-24T03:31:38;55.03;;;31.50;;
34060;SDS011;20336;-33.424;-70.638;2022-07-24T03:34:04;54.70;;;32.47;;
34060;SDS011;20336;-33.424;-70.638;2022-07-24T03:36:32;50.30;;;30.57;;
34060;SDS011;20336;-33.424;-70.638;2022-07-24T03:38:58;57.40;;;32.93;;
34060;SDS011;20336;-33.424;-70.638;2022-07-24T03:41:26;55.07;;;33.57;;
34060;SDS011;20336;-33.424;-70.638;2022-07-24T03:43:52;57.93;;;34.20;;
34060;SDS011;20336;-33.424;-70.638;2022-07-24T03:46:19;63.80;;;35.10;;
34060;SDS011;20336;-33.424;-70.638;2022-07-24T03:48:46;56.50;;;34.20;;
34060;SDS011;20336;-33.424;-70.638;2022-07-24T03:51:13;54.97;;;32.10;;
34060;SDS011;20336;-33.424;-70.638;2022-07-24T03:53:40;52.93;;;32.40;;
34060;SDS011;20336;-33.424;-70.638;2022-07-24T03:56:07;53.00;;;31.47;;
34060;SDS011;20336;-33.424;-70.638;2022-07-24T03:58:35;53.13;;;31.70;;
34060;SDS011;20336;-33.424;-70.638;2022-07-24T04:01:03;55.07;;;31.47;;
34060;SDS011;20336;-33.424;-70.638;2022-07-24T04:03:30;57.10;;;33.60;;
34060;SDS011;20336;-33.424;-70.638;2022-07-24T04:05:56;56.23;;;32.73;;
34060;SDS011;20336;-33.424;-70.638;2022-07-24T04:08:25;58.03;;;32.90;;
34060;SDS011;20336;-33.424;-70.638;2022-07-24T04:10:52;57.77;;;35.63;;
34060;SDS011;20336;-33.424;-70.638;2022-07-24T04:13:25;62.20;;;34.30;;
34060;SDS011;20336;-33.424;-70.638;2022-07-24T04:15:54;58.13;;;36.03;;
34060;SDS011;20336;-33.424;-70.638;2022-07-24T04:18:22;60.73;;;35.67;;
34060;SDS011;20336;-33.424;-70.638;2022-07-24T04:20:49;61.73;;;36.37;;
34060;SDS011;20336;-33.424;-70.638;2022-07-24T04:23:16;57.20;;;34.50;;
34060;SDS011;20336;-33.424;-70.638;2022-07-24T04:25:43;55.53;;;32.03;;
34060;SDS011;20336;-33.424;-70.638;2022-07-24T04:28:10;61.63;;;34.90;;
34060;SDS011;20336;-33.424;-70.638;2022-07-24T04:30:37;69.63;;;37.80;;
34060;SDS011;20336;-33.424;-70.638;2022-07-24T04:33:04;60.40;;;36.33;;
34060;SDS011;20336;-33.424;-70.638;2022-07-24T04:35:31;67.13;;;38.03;;
34060;SDS011;20336;-33.424;-70.638;2022-07-24T04:37:57;76.20;;;42.27;;
34060;SDS011;20336;-33.424;-70.638;2022-07-24T04:40:24;69.77;;;40.47;;
34060;SDS011;20336;-33.424;-70.638;2022-07-24T04:42:52;61.50;;;36.23;;
34060;SDS011;20336;-33.424;-70.638;2022-07-24T04:45:19;59.27;;;34.43;;
34060;SDS011;20336;-33.424;-70.638;2022-07-24T04:47:45;55.53;;;33.30;;
34060;SDS011;20336;-33.424;-70.638;2022-07-24T04:50:12;52.17;;;32.13;;
34060;SDS011;20336;-33.424;-70.638;2022-07-24T04:52:39;61.60;;;35.30;;
34060;SDS011;20336;-33.424;-70.638;2022-07-24T04:55:07;57.23;;;32.53;;
34060;SDS011;20336;-33.424;-70.638;2022-07-24T04:57:35;57.40;;;33.40;;
34060;SDS011;20336;-33.424;-70.638;2022-07-24T05:00:03;64.70;;;37.30;;
34060;SDS011;20336;-33.424;-70.638;2022-07-24T05:02:32;68.20;;;38.63;;
34060;SDS011;20336;-33.424;-70.638;2022-07-24T05:04:58;59.63;;;36.33;;
34060;SDS011;20336;-33.424;-70.638;2022-07-24T05:07:25;65.33;;;37.43;;
34060;SDS011;20336;-33.424;-70.638;2022-07-24T05:09:52;61.90;;;34.60;;
34060;SDS011;20336;-33.424;-70.638;2022-07-24T05:12:19;69.53;;;42.37;;
34060;SDS011;20336;-33.424;-70.638;2022-07-24T05:14:46;74.67;;;41.67;;
34060;SDS011;20336;-33.424;-70.638;2022-07-24T05:17:13;70.80;;;40.10;;
34060;SDS011;20336;-33.424;-70.638;2022-07-24T05:19:39;64.07;;;37.77;;
34060;SDS011;20336;-33.424;-70.638;2022-07-24T05:22:06;58.00;;;35.97;;
34060;SDS011;20336;-33.424;-70.638;2022-07-24T05:24:33;70.10;;;37.80;;
34060;SDS011;20336;-33.424;-70.638;2022-07-24T05:27:00;62.23;;;36.20;;
34060;SDS011;20336;-33.424;-70.638;2022-07-24T05:29:27;59.90;;;34.87;;
34060;SDS011;20336;-33.424;-70.638;2022-07-24T05:31:54;63.43;;;36.43;;
34060;SDS011;20336;-33.424;-70.638;2022-07-24T05:34:21;64.80;;;36.70;;
34060;SDS011;20336;-33.424;-70.638;2022-07-24T05:36:49;64.70;;;36.87;;
34060;SDS011;20336;-33.424;-70.638;2022-07-24T05:39:16;68.97;;;38.30;;
34060;SDS011;20336;-33.424;-70.638;2022-07-24T05:41:43;66.40;;;38.20;;
34060;SDS011;20336;-33.424;-70.638;2022-07-24T05:44:09;75.23;;;42.57;;
34060;SDS011;20336;-33.424;-70.638;2022-07-24T05:46:36;74.57;;;42.90;;
34060;SDS011;20336;-33.424;-70.638;2022-07-24T05:49:03;73.20;;;41.90;;
34060;SDS011;20336;-33.424;-70.638;2022-07-24T05:51:30;63.47;;;37.37;;
34060;SDS011;20336;-33.424;-70.638;2022-07-24T05:53:57;95.47;;;52.80;;
34060;SDS011;20336;-33.424;-70.638;2022-07-24T05:56:24;73.67;;;42.00;;
34060;SDS011;20336;-33.424;-70.638;2022-07-24T05:58:51;77.00;;;43.23;;
34060;SDS011;20336;-33.424;-70.638;2022-07-24T06:01:18;79.47;;;45.57;;
34060;SDS011;20336;-33.424;-70.638;2022-07-24T06:03:44;71.53;;;42.63;;
34060;SDS011;20336;-33.424;-70.638;2022-07-24T06:06:11;75.73;;;44.07;;
34060;SDS011;20336;-33.424;-70.638;2022-07-24T06:08:38;63.07;;;38.07;;
34060;SDS011;20336;-33.424;-70.638;2022-07-24T06:11:05;71.27;;;41.67;;
34060;SDS011;20336;-33.424;-70.638;2022-07-24T06:13:34;72.03;;;40.37;;
34060;SDS011;20336;-33.424;-70.638;2022-07-24T06:16:00;119.40;;;69.90;;
34060;SDS011;20336;-33.424;-70.638;2022-07-24T06:18:27;97.57;;;57.90;;
34060;SDS011;20336;-33.424;-70.638;2022-07-24T06:20:54;92.03;;;54.83;;
34060;SDS011;20336;-33.424;-70.638;2022-07-24T06:23:21;94.60;;;55.10;;
34060;SDS011;20336;-33.424;-70.638;2022-07-24T06:25:48;94.83;;;53.73;;
34060;SDS011;20336;-33.424;-70.638;2022-07-24T06:28:15;93.67;;;52.40;;
34060;SDS011;20336;-33.424;-70.638;2022-07-24T06:30:41;100.00;;;54.17;;
34060;SDS011;20336;-33.424;-70.638;2022-07-24T06:33:08;88.30;;;53.57;;
34060;SDS011;20336;-33.424;-70.638;2022-07-24T06:35:35;96.07;;;56.00;;
34060;SDS011;20336;-33.424;-70.638;2022-07-24T06:38:02;110.00;;;59.57;;
34060;SDS011;20336;-33.424;-70.638;2022-07-24T06:40:29;103.70;;;56.30;;
34060;SDS011;20336;-33.424;-70.638;2022-07-24T06:42:56;103.97;;;62.10;;
34060;SDS011;20336;-33.424;-70.638;2022-07-24T06:45:23;103.40;;;59.83;;
34060;SDS011;20336;-33.424;-70.638;2022-07-24T06:47:49;92.87;;;53.03;;
34060;SDS011;20336;-33.424;-70.638;2022-07-24T06:50:16;96.37;;;51.87;;
34060;SDS011;20336;-33.424;-70.638;2022-07-24T06:52:44;97.40;;;55.90;;
34060;SDS011;20336;-33.424;-70.638;2022-07-24T06:55:11;83.17;;;49.43;;
34060;SDS011;20336;-33.424;-70.638;2022-07-24T06:57:38;81.83;;;47.27;;
34060;SDS011;20336;-33.424;-70.638;2022-07-24T07:00:08;73.90;;;44.07;;
34060;SDS011;20336;-33.424;-70.638;2022-07-24T07:02:35;79.07;;;46.07;;
34060;SDS011;20336;-33.424;-70.638;2022-07-24T07:05:06;80.70;;;45.90;;
34060;SDS011;20336;-33.424;-70.638;2022-07-24T07:07:34;86.13;;;48.30;;
34060;SDS011;20336;-33.424;-70.638;2022-07-24T07:10:02;80.63;;;47.23;;
34060;SDS011;20336;-33.424;-70.638;2022-07-24T07:12:30;79.27;;;45.17;;
34060;SDS011;20336;-33.424;-70.638;2022-07-24T07:14:57;75.83;;;45.53;;
34060;SDS011;20336;-33.424;-70.638;2022-07-24T07:17:25;78.83;;;45.80;;
34060;SDS011;20336;-33.424;-70.638;2022-07-24T07:19:51;76.33;;;43.67;;
34060;SDS011;20336;-33.424;-70.638;2022-07-24T07:22:18;92.63;;;49.17;;
34060;SDS011;20336;-33.424;-70.638;2022-07-24T07:24:45;85.13;;;47.33;;
34060;SDS011;20336;-33.424;-70.638;2022-07-24T07:27:12;77.67;;;44.90;;
34060;SDS011;20336;-33.424;-70.638;2022-07-24T07:29:39;78.73;;;47.37;;
34060;SDS011;20336;-33.424;-70.638;2022-07-24T07:32:06;79.07;;;46.57;;
34060;SDS011;20336;-33.424;-70.638;2022-07-24T07:34:32;76.33;;;45.10;;
34060;SDS011;20336;-33.424;-70.638;2022-07-24T07:36:59;74.20;;;44.10;;
34060;SDS011;20336;-33.424;-70.638;2022-07-24T07:39:26;79.07;;;45.33;;
34060;SDS011;20336;-33.424;-70.638;2022-07-24T07:41:53;76.20;;;44.70;;
34060;SDS011;20336;-33.424;-70.638;2022-07-24T07:44:20;88.47;;;48.30;;
34060;SDS011;20336;-33.424;-70.638;2022-07-24T07:46:47;98.37;;;52.50;;
34060;SDS011;20336;-33.424;-70.638;2022-07-24T07:49:15;76.53;;;46.63;;
34060;SDS011;20336;-33.424;-70.638;2022-07-24T07:51:42;79.20;;;46.77;;
34060;SDS011;20336;-33.424;-70.638;2022-07-24T07:54:13;82.30;;;45.83;;
34060;SDS011;20336;-33.424;-70.638;2022-07-24T07:56:40;86.60;;;48.67;;
34060;SDS011;20336;-33.424;-70.638;2022-07-24T07:59:07;76.30;;;45.90;;
34060;SDS011;20336;-33.424;-70.638;2022-07-24T08:01:34;86.00;;;48.33;;
34060;SDS011;20336;-33.424;-70.638;2022-07-24T08:04:01;73.50;;;43.07;;
34060;SDS011;20336;-33.424;-70.638;2022-07-24T08:06:28;79.20;;;46.53;;
34060;SDS011;20336;-33.424;-70.638;2022-07-24T08:08:55;111.80;;;60.07;;
34060;SDS011;20336;-33.424;-70.638;2022-07-24T08:11:22;83.47;;;47.80;;
34060;SDS011;20336;-33.424;-70.638;2022-07-24T08:13:49;79.10;;;46.07;;
34060;SDS011;20336;-33.424;-70.638;2022-07-24T08:16:16;72.80;;;42.40;;
34060;SDS011;20336;-33.424;-70.638;2022-07-24T08:18:42;71.43;;;42.57;;
34060;SDS011;20336;-33.424;-70.638;2022-07-24T08:21:09;83.10;;;47.00;;
34060;SDS011;20336;-33.424;-70.638;2022-07-24T08:23:36;103.47;;;54.43;;
34060;SDS011;20336;-33.424;-70.638;2022-07-24T08:26:03;91.07;;;51.93;;
34060;SDS011;20336;-33.424;-70.638;2022-07-24T08:28:32;81.80;;;45.37;;
34060;SDS011;20336;-33.424;-70.638;2022-07-24T08:30:58;84.13;;;47.70;;
34060;SDS011;20336;-33.424;-70.638;2022-07-24T08:33:25;93.80;;;51.97;;
34060;SDS011;20336;-33.424;-70.638;2022-07-24T08:35:52;92.83;;;51.90;;
34060;SDS011;20336;-33.424;-70.638;2022-07-24T08:38:19;90.87;;;50.90;;
34060;SDS011;20336;-33.424;-70.638;2022-07-24T08:40:46;89.20;;;48.97;;
34060;SDS011;20336;-33.424;-70.638;2022-07-24T08:43:13;82.33;;;47.50;;
34060;SDS011;20336;-33.424;-70.638;2022-07-24T08:45:40;83.70;;;47.63;;
34060;SDS011;20336;-33.424;-70.638;2022-07-24T08:48:10;83.13;;;46.83;;
34060;SDS011;20336;-33.424;-70.638;2022-07-24T08:50:40;82.03;;;45.67;;
34060;SDS011;20336;-33.424;-70.638;2022-07-24T08:53:08;79.40;;;46.03;;
34060;SDS011;20336;-33.424;-70.638;2022-07-24T08:55:36;85.93;;;49.27;;
34060;SDS011;20336;-33.424;-70.638;2022-07-24T08:58:03;92.77;;;48.70;;
34060;SDS011;20336;-33.424;-70.638;2022-07-24T09:00:30;84.73;;;48.17;;
34060;SDS011;20336;-33.424;-70.638;2022-07-24T09:02:58;82.10;;;46.33;;
34060;SDS011;20336;-33.424;-70.638;2022-07-24T09:05:24;80.03;;;44.47;;
34060;SDS011;20336;-33.424;-70.638;2022-07-24T09:08:12;75.97;;;45.63;;
34060;SDS011;20336;-33.424;-70.638;2022-07-24T09:10:52;82.00;;;46.13;;
34060;SDS011;20336;-33.424;-70.638;2022-07-24T09:13:22;81.50;;;47.47;;
34060;SDS011;20336;-33.424;-70.638;2022-07-24T09:15:52;83.70;;;47.00;;
34060;SDS011;20336;-33.424;-70.638;2022-07-24T09:18:29;75.70;;;46.20;;
34060;SDS011;20336;-33.424;-70.638;2022-07-24T09:20:58;84.97;;;47.57;;
34060;SDS011;20336;-33.424;-70.638;2022-07-24T09:23:39;82.07;;;46.63;;
34060;SDS011;20336;-33.424;-70.638;2022-07-24T09:26:06;81.33;;;46.17;;
34060;SDS011;20336;-33.424;-70.638;2022-07-24T09:34:27;81.67;;;48.13;;
34060;SDS011;20336;-33.424;-70.638;2022-07-24T09:39:27;76.60;;;44.07;;
34060;SDS011;20336;-33.424;-70.638;2022-07-24T09:41:55;93.10;;;51.37;;
34060;SDS011;20336;-33.424;-70.638;2022-07-24T09:44:23;79.43;;;45.13;;
34060;SDS011;20336;-33.424;-70.638;2022-07-24T09:47:01;72.37;;;43.50;;
34060;SDS011;20336;-33.424;-70.638;2022-07-24T09:49:30;76.87;;;44.90;;
34060;SDS011;20336;-33.424;-70.638;2022-07-24T09:52:17;82.77;;;47.00;;
34060;SDS011;20336;-33.424;-70.638;2022-07-24T09:54:46;82.63;;;46.70;;
34060;SDS011;20336;-33.424;-70.638;2022-07-24T09:57:15;80.93;;;47.03;;
34060;SDS011;20336;-33.424;-70.638;2022-07-24T09:59:53;83.40;;;48.10;;
34060;SDS011;20336;-33.424;-70.638;2022-07-24T10:02:22;84.57;;;48.73;;
34060;SDS011;20336;-33.424;-70.638;2022-07-24T10:04:51;88.17;;;52.17;;
34060;SDS011;20336;-33.424;-70.638;2022-07-24T10:07:19;80.23;;;48.67;;
34060;SDS011;20336;-33.424;-70.638;2022-07-24T10:09:51;85.13;;;48.93;;
34060;SDS011;20336;-33.424;-70.638;2022-07-24T10:12:20;86.33;;;50.13;;
34060;SDS011;20336;-33.424;-70.638;2022-07-24T10:14:49;85.53;;;47.63;;
34060;SDS011;20336;-33.424;-70.638;2022-07-24T10:17:18;85.57;;;51.00;;
34060;SDS011;20336;-33.424;-70.638;2022-07-24T10:19:46;91.43;;;52.57;;
34060;SDS011;20336;-33.424;-70.638;2022-07-24T10:27:31;91.13;;;52.77;;
34060;SDS011;20336;-33.424;-70.638;2022-07-24T10:30:05;87.90;;;49.77;;
34060;SDS011;20336;-33.424;-70.638;2022-07-24T10:32:35;98.10;;;53.63;;
34060;SDS011;20336;-33.424;-70.638;2022-07-24T10:35:08;109.40;;;57.53;;
34060;SDS011;20336;-33.424;-70.638;2022-07-24T10:37:47;105.20;;;59.13;;
34060;SDS011;20336;-33.424;-70.638;2022-07-24T10:43:12;99.73;;;56.60;;
34060;SDS011;20336;-33.424;-70.638;2022-07-24T10:58:57;89.23;;;51.80;;
34060;SDS011;20336;-33.424;-70.638;2022-07-24T11:01:36;93.40;;;51.60;;
34060;SDS011;20336;-33.424;-70.638;2022-07-24T11:09:21;96.27;;;52.90;;
34060;SDS011;20336;-33.424;-70.638;2022-07-24T11:14:25;85.13;;;48.87;;
34060;SDS011;20336;-33.424;-70.638;2022-07-24T11:20:11;83.80;;;47.30;;
34060;SDS011;20336;-33.424;-70.638;2022-07-24T11:22:50;90.50;;;50.90;;
34060;SDS011;20336;-33.424;-70.638;2022-07-24T11:25:26;91.07;;;51.43;;
34060;SDS011;20336;-33.424;-70.638;2022-07-24T11:28:05;93.97;;;51.13;;
34060;SDS011;20336;-33.424;-70.638;2022-07-24T11:30:43;81.67;;;48.47;;
34060;SDS011;20336;-33.424;-70.638;2022-07-24T11:33:17;74.63;;;45.70;;
34060;SDS011;20336;-33.424;-70.638;2022-07-24T11:35:47;88.43;;;49.17;;
34060;SDS011;20336;-33.424;-70.638;2022-07-24T11:38:14;89.73;;;50.17;;
34060;SDS011;20336;-33.424;-70.638;2022-07-24T11:40:41;82.70;;;47.07;;
34060;SDS011;20336;-33.424;-70.638;2022-07-24T11:43:08;85.97;;;50.13;;
34060;SDS011;20336;-33.424;-70.638;2022-07-24T11:45:36;99.17;;;55.93;;
34060;SDS011;20336;-33.424;-70.638;2022-07-24T11:48:03;89.87;;;50.50;;
34060;SDS011;20336;-33.424;-70.638;2022-07-24T11:50:30;91.57;;;49.87;;
34060;SDS011;20336;-33.424;-70.638;2022-07-24T11:52:59;89.20;;;50.70;;
34060;SDS011;20336;-33.424;-70.638;2022-07-24T11:55:30;99.90;;;53.60;;
34060;SDS011;20336;-33.424;-70.638;2022-07-24T11:57:57;98.70;;;55.13;;
34060;SDS011;20336;-33.424;-70.638;2022-07-24T12:00:26;92.47;;;52.03;;
34060;SDS011;20336;-33.424;-70.638;2022-07-24T12:02:57;90.93;;;51.07;;
34060;SDS011;20336;-33.424;-70.638;2022-07-24T12:05:35;89.80;;;50.27;;
34060;SDS011;20336;-33.424;-70.638;2022-07-24T12:08:05;90.57;;;51.27;;
34060;SDS011;20336;-33.424;-70.638;2022-07-24T12:10:58;90.53;;;49.50;;
34060;SDS011;20336;-33.424;-70.638;2022-07-24T12:13:29;88.03;;;49.00;;
34060;SDS011;20336;-33.424;-70.638;2022-07-24T12:15:59;88.57;;;51.47;;
34060;SDS011;20336;-33.424;-70.638;2022-07-24T12:18:25;87.73;;;49.97;;
34060;SDS011;20336;-33.424;-70.638;2022-07-24T12:20:57;91.47;;;52.63;;
34060;SDS011;20336;-33.424;-70.638;2022-07-24T12:23:25;87.30;;;51.20;;
34060;SDS011;20336;-33.424;-70.638;2022-07-24T12:25:56;94.47;;;53.57;;
34060;SDS011;20336;-33.424;-70.638;2022-07-24T12:28:25;89.40;;;50.30;;
34060;SDS011;20336;-33.424;-70.638;2022-07-24T12:30:52;92.07;;;53.10;;
34060;SDS011;20336;-33.424;-70.638;2022-07-24T12:33:24;99.07;;;53.83;;
34060;SDS011;20336;-33.424;-70.638;2022-07-24T12:35:55;76.57;;;46.00;;
34060;SDS011;20336;-33.424;-70.638;2022-07-24T12:38:37;86.57;;;49.47;;
34060;SDS011;20336;-33.424;-70.638;2022-07-24T12:41:18;87.00;;;49.93;;
34060;SDS011;20336;-33.424;-70.638;2022-07-24T12:44:00;90.13;;;50.17;;
34060;SDS011;20336;-33.424;-70.638;2022-07-24T12:46:42;85.17;;;48.43;;
34060;SDS011;20336;-33.424;-70.638;2022-07-24T12:49:14;82.33;;;46.77;;
34060;SDS011;20336;-33.424;-70.638;2022-07-24T12:51:52;91.90;;;51.77;;
34060;SDS011;20336;-33.424;-70.638;2022-07-24T12:54:21;91.80;;;50.67;;
34060;SDS011;20336;-33.424;-70.638;2022-07-24T12:56:56;91.33;;;51.10;;
34060;SDS011;20336;-33.424;-70.638;2022-07-24T12:59:26;91.50;;;51.83;;
34060;SDS011;20336;-33.424;-70.638;2022-07-24T13:02:07;92.87;;;50.93;;
34060;SDS011;20336;-33.424;-70.638;2022-07-24T13:04:45;106.20;;;57.10;;
34060;SDS011;20336;-33.424;-70.638;2022-07-24T13:07:14;96.03;;;54.70;;
34060;SDS011;20336;-33.424;-70.638;2022-07-24T13:09:42;96.63;;;54.37;;
34060;SDS011;20336;-33.424;-70.638;2022-07-24T13:12:09;99.10;;;56.80;;
34060;SDS011;20336;-33.424;-70.638;2022-07-24T13:14:37;98.53;;;57.77;;
34060;SDS011;20336;-33.424;-70.638;2022-07-24T13:17:08;92.33;;;53.17;;
34060;SDS011;20336;-33.424;-70.638;2022-07-24T13:19:37;93.43;;;54.53;;
34060;SDS011;20336;-33.424;-70.638;2022-07-24T13:22:05;96.27;;;55.73;;
34060;SDS011;20336;-33.424;-70.638;2022-07-24T13:24:32;97.63;;;58.17;;
34060;SDS011;20336;-33.424;-70.638;2022-07-24T13:27:00;89.50;;;53.30;;
34060;SDS011;20336;-33.424;-70.638;2022-07-24T13:29:27;108.63;;;65.53;;
34060;SDS011;20336;-33.424;-70.638;2022-07-24T13:31:54;104.87;;;60.33;;
34060;SDS011;20336;-33.424;-70.638;2022-07-24T13:34:21;98.77;;;59.23;;
34060;SDS011;20336;-33.424;-70.638;2022-07-24T13:36:48;104.50;;;59.57;;
34060;SDS011;20336;-33.424;-70.638;2022-07-24T13:39:15;109.93;;;63.10;;
34060;SDS011;20336;-33.424;-70.638;2022-07-24T13:41:42;103.33;;;61.57;;
34060;SDS011;20336;-33.424;-70.638;2022-07-24T13:44:09;98.47;;;56.70;;
34060;SDS011;20336;-33.424;-70.638;2022-07-24T13:46:36;95.17;;;55.87;;
34060;SDS011;20336;-33.424;-70.638;2022-07-24T13:49:04;103.70;;;55.53;;
34060;SDS011;20336;-33.424;-70.638;2022-07-24T13:51:33;90.27;;;54.60;;
34060;SDS011;20336;-33.424;-70.638;2022-07-24T13:54:00;88.97;;;54.00;;
34060;SDS011;20336;-33.424;-70.638;2022-07-24T13:56:27;91.67;;;53.23;;
34060;SDS011;20336;-33.424;-70.638;2022-07-24T13:58:54;82.03;;;51.70;;
34060;SDS011;20336;-33.424;-70.638;2022-07-24T14:01:22;87.73;;;52.23;;
34060;SDS011;20336;-33.424;-70.638;2022-07-24T14:03:50;82.07;;;46.93;;
34060;SDS011;20336;-33.424;-70.638;2022-07-24T14:06:17;84.90;;;48.00;;
34060;SDS011;20336;-33.424;-70.638;2022-07-24T14:08:44;79.10;;;46.17;;
34060;SDS011;20336;-33.424;-70.638;2022-07-24T14:11:11;85.73;;;50.13;;
34060;SDS011;20336;-33.424;-70.638;2022-07-24T14:13:38;86.83;;;49.33;;
34060;SDS011;20336;-33.424;-70.638;2022-07-24T14:16:05;88.47;;;49.93;;
34060;SDS011;20336;-33.424;-70.638;2022-07-24T14:18:32;96.30;;;54.77;;
34060;SDS011;20336;-33.424;-70.638;2022-07-24T14:20:59;96.03;;;54.20;;
34060;SDS011;20336;-33.424;-70.638;2022-07-24T14:23:26;91.57;;;55.10;;
34060;SDS011;20336;-33.424;-70.638;2022-07-24T14:25:53;90.93;;;52.77;;
34060;SDS011;20336;-33.424;-70.638;2022-07-24T14:28:20;98.97;;;57.27;;
34060;SDS011;20336;-33.424;-70.638;2022-07-24T14:30:46;95.10;;;54.93;;